sensor_id;sensor_type;location;lat;lon;timestamp;pressure;altitude;pressure_sealevel;temperature;humidity
64916;BME280;51427;-27.442;153.014;2024-03-08T00:00:12;101995.31;;;26.57;68.27
64916;BME280;51427;-27.442;153.014;2024-03-08T00:02:41;101994.00;;;26.54;68.29
64916;BME280;51427;-27.442;153.014;2024-03-08T00:05:09;101993.97;;;26.75;67.51
64916;BME280;51427;-27.442;153.014;2024-03-08T00:07:37;101986.91;;;27.31;69.75
64916;BME280;51427;-27.442;153.014;2024-03-08T00:10:12;101977.56;;;27.15;66.07
64916;BME280;51427;-27.442;153.014;2024-03-08T00:12:41;101992.41;;;27.07;63.88
64916;BME280;51427;-27.442;153.014;2024-03-08T00:15:13;101989.34;;;27.00;62.42
64916;BME280;51427;-27.442;153.014;2024-03-08T00:17:41;101985.47;;;27.13;63.51
64916;BME280;51427;-27.442;153.014;2024-03-08T00:20:09;101979.28;;;27.07;62.65
64916;BME280;51427;-27.442;153.014;2024-03-08T00:22:38;101981.09;;;27.24;63.64
64916;BME280;51427;-27.442;153.014;2024-03-08T00:25:06;101977.22;;;27.16;59.55
64916;BME280;51427;-27.442;153.014;2024-03-08T00:27:38;101978.75;;;27.26;59.46
64916;BME280;51427;-27.442;153.014;2024-03-08T00:30:06;101983.41;;;27.22;57.29
64916;BME280;51427;-27.442;153.014;2024-03-08T00:32:35;101969.06;;;27.56;57.43
64916;BME280;51427;-27.442;153.014;2024-03-08T00:35:03;101972.91;;;27.88;57.03
64916;BME280;51427;-27.442;153.014;2024-03-08T00:37:34;101966.66;;;27.91;56.97
64916;BME280;51427;-27.442;153.014;2024-03-08T00:40:01;101958.94;;;28.25;58.47
64916;BME280;51427;-27.442;153.014;2024-03-08T00:42:29;101965.66;;;28.48;55.80
64916;BME280;51427;-27.442;153.014;2024-03-08T00:44:57;101955.88;;;28.42;56.68
64916;BME280;51427;-27.442;153.014;2024-03-08T00:47:24;101954.19;;;28.01;56.41
64916;BME280;51427;-27.442;153.014;2024-03-08T00:49:52;101961.97;;;27.47;58.19
64916;BME280;51427;-27.442;153.014;2024-03-08T00:52:20;101962.41;;;27.37;57.82
64916;BME280;51427;-27.442;153.014;2024-03-08T00:54:47;101961.66;;;27.73;56.66
64916;BME280;51427;-27.442;153.014;2024-03-08T00:57:15;101951.63;;;27.96;54.89
64916;BME280;51427;-27.442;153.014;2024-03-08T00:59:43;101960.38;;;28.18;56.12
64916;BME280;51427;-27.442;153.014;2024-03-08T01:02:10;101959.78;;;27.77;56.52
64916;BME280;51427;-27.442;153.014;2024-03-08T01:04:38;101951.16;;;28.06;54.55
64916;BME280;51427;-27.442;153.014;2024-03-08T01:07:06;101944.78;;;28.05;53.28
64916;BME280;51427;-27.442;153.014;2024-03-08T01:09:33;101935.16;;;28.43;52.83
64916;BME280;51427;-27.442;153.014;2024-03-08T01:12:01;101928.53;;;28.35;53.41
64916;BME280;51427;-27.442;153.014;2024-03-08T01:14:29;101927.25;;;28.45;54.47
64916;BME280;51427;-27.442;153.014;2024-03-08T01:16:57;101918.25;;;28.51;54.01
64916;BME280;51427;-27.442;153.014;2024-03-08T01:19:25;101921.19;;;28.43;55.17
64916;BME280;51427;-27.442;153.014;2024-03-08T01:21:53;101926.03;;;28.58;55.28
64916;BME280;51427;-27.442;153.014;2024-03-08T01:24:23;101913.91;;;28.66;53.17
64916;BME280;51427;-27.442;153.014;2024-03-08T01:26:51;101916.75;;;28.82;54.08
64916;BME280;51427;-27.442;153.014;2024-03-08T01:29:19;101909.91;;;28.79;52.22
64916;BME280;51427;-27.442;153.014;2024-03-08T01:31:47;101912.09;;;29.01;52.28
64916;BME280;51427;-27.442;153.014;2024-03-08T01:34:14;101906.19;;;28.35;54.63
64916;BME280;51427;-27.442;153.014;2024-03-08T01:36:42;101903.78;;;28.61;54.28
64916;BME280;51427;-27.442;153.014;2024-03-08T01:39:10;101899.09;;;28.65;54.85
64916;BME280;51427;-27.442;153.014;2024-03-08T01:41:38;101906.13;;;28.87;54.09
64916;BME280;51427;-27.442;153.014;2024-03-08T01:44:07;101903.53;;;28.94;53.72
64916;BME280;51427;-27.442;153.014;2024-03-08T01:46:35;101896.13;;;29.17;51.98
64916;BME280;51427;-27.442;153.014;2024-03-08T01:49:03;101908.25;;;29.37;52.55
64916;BME280;51427;-27.442;153.014;2024-03-08T01:51:31;101896.94;;;28.19;54.65
64916;BME280;51427;-27.442;153.014;2024-03-08T01:53:59;101890.81;;;27.89;55.25
64916;BME280;51427;-27.442;153.014;2024-03-08T01:56:29;101893.44;;;28.22;55.24
64916;BME280;51427;-27.442;153.014;2024-03-08T01:58:59;101882.59;;;28.60;53.14
64916;BME280;51427;-27.442;153.014;2024-03-08T02:01:28;101886.53;;;28.72;52.59
64916;BME280;51427;-27.442;153.014;2024-03-08T02:03:56;101878.81;;;28.01;52.69
64916;BME280;51427;-27.442;153.014;2024-03-08T02:06:23;101884.75;;;28.11;53.56
64916;BME280;51427;-27.442;153.014;2024-03-08T02:08:51;101892.28;;;27.99;53.77
64916;BME280;51427;-27.442;153.014;2024-03-08T02:11:20;101878.81;;;28.01;54.56
64916;BME280;51427;-27.442;153.014;2024-03-08T02:13:48;101894.97;;;27.95;56.27
64916;BME280;51427;-27.442;153.014;2024-03-08T02:16:21;101890.03;;;27.64;56.30
64916;BME280;51427;-27.442;153.014;2024-03-08T02:18:49;101902.72;;;27.62;54.36
64916;BME280;51427;-27.442;153.014;2024-03-08T02:21:20;101894.22;;;27.58;54.43
64916;BME280;51427;-27.442;153.014;2024-03-08T02:23:48;101884.75;;;27.39;55.13
64916;BME280;51427;-27.442;153.014;2024-03-08T02:26:18;101880.28;;;27.58;56.90
64916;BME280;51427;-27.442;153.014;2024-03-08T02:28:46;101883.03;;;27.83;56.59
64916;BME280;51427;-27.442;153.014;2024-03-08T02:31:14;101887.13;;;27.73;56.99
64916;BME280;51427;-27.442;153.014;2024-03-08T02:33:43;101888.41;;;27.63;56.68
64916;BME280;51427;-27.442;153.014;2024-03-08T02:36:11;101885.22;;;27.89;55.91
64916;BME280;51427;-27.442;153.014;2024-03-08T02:38:39;101869.94;;;28.23;55.83
64916;BME280;51427;-27.442;153.014;2024-03-08T02:41:09;101872.88;;;28.42;56.31
64916;BME280;51427;-27.442;153.014;2024-03-08T02:43:37;101871.25;;;28.13;56.36
64916;BME280;51427;-27.442;153.014;2024-03-08T02:46:05;101877.13;;;27.60;56.46
64916;BME280;51427;-27.442;153.014;2024-03-08T02:48:32;101865.72;;;27.53;56.75
64916;BME280;51427;-27.442;153.014;2024-03-08T02:51:00;101865.59;;;27.86;56.45
64916;BME280;51427;-27.442;153.014;2024-03-08T02:53:29;101847.09;;;27.81;55.90
64916;BME280;51427;-27.442;153.014;2024-03-08T02:55:56;101848.06;;;27.61;54.79
64916;BME280;51427;-27.442;153.014;2024-03-08T02:58:24;101856.06;;;27.87;54.62
64916;BME280;51427;-27.442;153.014;2024-03-08T03:00:51;101856.31;;;27.69;55.31
64916;BME280;51427;-27.442;153.014;2024-03-08T03:03:19;101853.59;;;27.97;55.14
64916;BME280;51427;-27.442;153.014;2024-03-08T03:05:47;101846.84;;;27.98;54.31
64916;BME280;51427;-27.442;153.014;2024-03-08T03:08:14;101856.09;;;27.62;53.42
64916;BME280;51427;-27.442;153.014;2024-03-08T03:10:43;101843.31;;;28.13;53.30
64916;BME280;51427;-27.442;153.014;2024-03-08T03:13:11;101844.91;;;28.27;52.80
64916;BME280;51427;-27.442;153.014;2024-03-08T03:15:41;101834.84;;;28.38;53.66
64916;BME280;51427;-27.442;153.014;2024-03-08T03:18:11;101826.47;;;28.10;53.01
64916;BME280;51427;-27.442;153.014;2024-03-08T03:20:39;101828.44;;;28.09;52.69
64916;BME280;51427;-27.442;153.014;2024-03-08T03:23:09;101826.94;;;28.00;54.05
64916;BME280;51427;-27.442;153.014;2024-03-08T03:25:40;101831.91;;;28.18;52.86
64916;BME280;51427;-27.442;153.014;2024-03-08T03:28:08;101821.44;;;28.71;51.06
64916;BME280;51427;-27.442;153.014;2024-03-08T03:30:37;101818.53;;;28.67;51.96
64916;BME280;51427;-27.442;153.014;2024-03-08T03:33:06;101815.44;;;28.01;53.47
64916;BME280;51427;-27.442;153.014;2024-03-08T03:35:33;101812.06;;;28.08;53.77
64916;BME280;51427;-27.442;153.014;2024-03-08T03:38:02;101808.94;;;27.85;53.70
64916;BME280;51427;-27.442;153.014;2024-03-08T03:40:30;101815.63;;;27.81;53.76
64916;BME280;51427;-27.442;153.014;2024-03-08T03:42:58;101804.25;;;28.01;52.13
64916;BME280;51427;-27.442;153.014;2024-03-08T03:45:26;101801.50;;;28.29;52.25
64916;BME280;51427;-27.442;153.014;2024-03-08T03:47:53;101818.13;;;27.98;52.76
64916;BME280;51427;-27.442;153.014;2024-03-08T03:50:21;101799.00;;;27.60;53.47
64916;BME280;51427;-27.442;153.014;2024-03-08T03:52:50;101807.03;;;27.61;53.97
64916;BME280;51427;-27.442;153.014;2024-03-08T03:55:18;101817.00;;;28.27;51.52
64916;BME280;51427;-27.442;153.014;2024-03-08T03:57:46;101806.56;;;27.99;51.46
64916;BME280;51427;-27.442;153.014;2024-03-08T04:00:14;101807.34;;;27.84;52.69
64916;BME280;51427;-27.442;153.014;2024-03-08T04:02:42;101794.50;;;27.95;52.13
64916;BME280;51427;-27.442;153.014;2024-03-08T04:05:10;101797.31;;;28.51;51.50
64916;BME280;51427;-27.442;153.014;2024-03-08T04:07:39;101788.44;;;28.77;50.97
64916;BME280;51427;-27.442;153.014;2024-03-08T04:10:08;101787.50;;;29.35;51.91
64916;BME280;51427;-27.442;153.014;2024-03-08T04:12:36;101815.47;;;28.29;53.73
64916;BME280;51427;-27.442;153.014;2024-03-08T04:15:06;101800.63;;;27.73;54.28
64916;BME280;51427;-27.442;153.014;2024-03-08T04:17:34;101802.34;;;27.78;55.44
64916;BME280;51427;-27.442;153.014;2024-03-08T04:20:05;101813.41;;;28.14;54.52
64916;BME280;51427;-27.442;153.014;2024-03-08T04:22:37;101815.94;;;28.90;52.08
64916;BME280;51427;-27.442;153.014;2024-03-08T04:25:06;101810.38;;;28.47;52.24
64916;BME280;51427;-27.442;153.014;2024-03-08T04:27:35;101803.78;;;28.11;53.90
64916;BME280;51427;-27.442;153.014;2024-03-08T04:30:03;101791.91;;;28.14;53.18
64916;BME280;51427;-27.442;153.014;2024-03-08T04:32:34;101795.63;;;28.06;54.08
64916;BME280;51427;-27.442;153.014;2024-03-08T04:35:02;101793.22;;;28.33;55.17
64916;BME280;51427;-27.442;153.014;2024-03-08T04:37:30;101788.50;;;28.21;55.78
64916;BME280;51427;-27.442;153.014;2024-03-08T04:39:58;101795.78;;;27.21;60.86
64916;BME280;51427;-27.442;153.014;2024-03-08T04:42:27;101796.94;;;27.08;62.57
64916;BME280;51427;-27.442;153.014;2024-03-08T04:44:56;101806.69;;;27.14;61.51
64916;BME280;51427;-27.442;153.014;2024-03-08T04:47:24;101811.47;;;27.62;61.20
64916;BME280;51427;-27.442;153.014;2024-03-08T04:49:51;101809.59;;;27.06;61.78
64916;BME280;51427;-27.442;153.014;2024-03-08T04:52:19;101798.91;;;27.08;61.98
64916;BME280;51427;-27.442;153.014;2024-03-08T04:54:48;101819.72;;;27.35;58.49
64916;BME280;51427;-27.442;153.014;2024-03-08T04:57:16;101821.22;;;26.96;61.62
64916;BME280;51427;-27.442;153.014;2024-03-08T04:59:46;101794.13;;;26.96;61.66
64916;BME280;51427;-27.442;153.014;2024-03-08T05:02:15;101801.34;;;27.21;60.20
64916;BME280;51427;-27.442;153.014;2024-03-08T05:04:42;101782.88;;;27.41;58.03
64916;BME280;51427;-27.442;153.014;2024-03-08T05:07:10;101795.19;;;27.16;58.79
64916;BME280;51427;-27.442;153.014;2024-03-08T05:09:38;101774.66;;;27.08;58.24
64916;BME280;51427;-27.442;153.014;2024-03-08T05:12:07;101784.13;;;27.68;58.14
64916;BME280;51427;-27.442;153.014;2024-03-08T05:14:35;101778.63;;;27.84;56.36
64916;BME280;51427;-27.442;153.014;2024-03-08T05:17:02;101786.72;;;27.12;57.69
64916;BME280;51427;-27.442;153.014;2024-03-08T05:19:30;101777.78;;;27.19;57.46
64916;BME280;51427;-27.442;153.014;2024-03-08T05:21:57;101774.84;;;27.40;57.57
64916;BME280;51427;-27.442;153.014;2024-03-08T05:24:25;101783.25;;;27.28;57.66
64916;BME280;51427;-27.442;153.014;2024-03-08T05:26:53;101768.56;;;27.43;57.39
64916;BME280;51427;-27.442;153.014;2024-03-08T05:29:20;101771.81;;;27.57;56.95
64916;BME280;51427;-27.442;153.014;2024-03-08T05:31:52;101771.47;;;27.58;56.97
64916;BME280;51427;-27.442;153.014;2024-03-08T05:34:20;101767.53;;;27.59;56.62
64916;BME280;51427;-27.442;153.014;2024-03-08T05:36:49;101755.22;;;27.48;56.74
64916;BME280;51427;-27.442;153.014;2024-03-08T05:39:18;101769.13;;;27.73;56.89
64916;BME280;51427;-27.442;153.014;2024-03-08T05:41:47;101761.25;;;27.62;57.62
64916;BME280;51427;-27.442;153.014;2024-03-08T05:44:14;101765.28;;;27.77;57.33
64916;BME280;51427;-27.442;153.014;2024-03-08T05:46:45;101768.44;;;27.63;57.02
64916;BME280;51427;-27.442;153.014;2024-03-08T05:49:15;101761.03;;;27.55;56.57
64916;BME280;51427;-27.442;153.014;2024-03-08T05:51:43;101766.25;;;27.33;56.54
64916;BME280;51427;-27.442;153.014;2024-03-08T05:54:11;101774.06;;;27.51;56.24
64916;BME280;51427;-27.442;153.014;2024-03-08T05:56:40;101775.88;;;27.35;55.10
64916;BME280;51427;-27.442;153.014;2024-03-08T05:59:13;101780.78;;;27.38;55.21
64916;BME280;51427;-27.442;153.014;2024-03-08T06:01:40;101771.72;;;27.29;55.43
64916;BME280;51427;-27.442;153.014;2024-03-08T06:04:08;101780.34;;;27.24;56.18
64916;BME280;51427;-27.442;153.014;2024-03-08T06:06:36;101774.28;;;27.46;56.79
64916;BME280;51427;-27.442;153.014;2024-03-08T06:09:04;101781.47;;;27.59;56.85
64916;BME280;51427;-27.442;153.014;2024-03-08T06:11:44;101786.19;;;27.71;56.41
64916;BME280;51427;-27.442;153.014;2024-03-08T06:14:11;101781.38;;;27.56;55.89
64916;BME280;51427;-27.442;153.014;2024-03-08T06:16:39;101775.09;;;27.47;55.44
64916;BME280;51427;-27.442;153.014;2024-03-08T06:19:07;101768.00;;;27.49;53.84
64916;BME280;51427;-27.442;153.014;2024-03-08T06:21:34;101772.94;;;27.80;54.16
64916;BME280;51427;-27.442;153.014;2024-03-08T06:24:02;101773.44;;;27.70;54.24
64916;BME280;51427;-27.442;153.014;2024-03-08T06:26:30;101768.69;;;27.98;54.35
64916;BME280;51427;-27.442;153.014;2024-03-08T06:28:58;101778.81;;;27.91;55.16
64916;BME280;51427;-27.442;153.014;2024-03-08T06:31:26;101776.28;;;27.86;54.42
64916;BME280;51427;-27.442;153.014;2024-03-08T06:33:53;101781.81;;;27.58;55.08
64916;BME280;51427;-27.442;153.014;2024-03-08T06:36:24;101779.47;;;27.72;55.64
64916;BME280;51427;-27.442;153.014;2024-03-08T06:38:52;101778.69;;;27.47;55.96
64916;BME280;51427;-27.442;153.014;2024-03-08T06:41:20;101782.88;;;27.41;55.86
64916;BME280;51427;-27.442;153.014;2024-03-08T06:43:48;101782.75;;;27.50;56.19
64916;BME280;51427;-27.442;153.014;2024-03-08T06:46:18;101785.44;;;27.46;56.03
64916;BME280;51427;-27.442;153.014;2024-03-08T06:48:47;101793.09;;;27.49;56.45
64916;BME280;51427;-27.442;153.014;2024-03-08T06:51:15;101800.19;;;27.35;54.74
64916;BME280;51427;-27.442;153.014;2024-03-08T06:53:43;101797.06;;;27.24;56.40
64916;BME280;51427;-27.442;153.014;2024-03-08T06:56:11;101796.13;;;27.44;56.95
64916;BME280;51427;-27.442;153.014;2024-03-08T06:58:38;101802.50;;;27.33;57.53
64916;BME280;51427;-27.442;153.014;2024-03-08T07:01:06;101800.19;;;27.35;57.95
64916;BME280;51427;-27.442;153.014;2024-03-08T07:03:42;101805.88;;;27.02;59.69
64916;BME280;51427;-27.442;153.014;2024-03-08T07:06:11;101812.03;;;26.95;59.99
64916;BME280;51427;-27.442;153.014;2024-03-08T07:08:42;101813.31;;;26.98;60.81
64916;BME280;51427;-27.442;153.014;2024-03-08T07:11:10;101828.34;;;26.72;62.25
64916;BME280;51427;-27.442;153.014;2024-03-08T07:13:38;101822.13;;;26.55;63.20
64916;BME280;51427;-27.442;153.014;2024-03-08T07:16:06;101817.38;;;26.55;63.44
64916;BME280;51427;-27.442;153.014;2024-03-08T07:18:36;101825.47;;;26.48;64.27
64916;BME280;51427;-27.442;153.014;2024-03-08T07:21:06;101822.19;;;26.34;64.42
64916;BME280;51427;-27.442;153.014;2024-03-08T07:23:34;101826.69;;;26.27;64.19
64916;BME280;51427;-27.442;153.014;2024-03-08T07:26:24;101826.59;;;26.35;63.57
64916;BME280;51427;-27.442;153.014;2024-03-08T07:28:52;101827.28;;;26.32;63.70
64916;BME280;51427;-27.442;153.014;2024-03-08T07:31:21;101837.13;;;26.30;62.91
64916;BME280;51427;-27.442;153.014;2024-03-08T07:34:04;101834.00;;;26.31;63.35
64916;BME280;51427;-27.442;153.014;2024-03-08T07:36:34;101836.66;;;26.28;63.30
64916;BME280;51427;-27.442;153.014;2024-03-08T07:39:02;101828.38;;;26.19;63.97
64916;BME280;51427;-27.442;153.014;2024-03-08T07:41:32;101842.66;;;26.17;63.92
64916;BME280;51427;-27.442;153.014;2024-03-08T07:44:03;101850.16;;;26.17;63.83
64916;BME280;51427;-27.442;153.014;2024-03-08T07:46:30;101842.91;;;26.25;63.54
64916;BME280;51427;-27.442;153.014;2024-03-08T07:48:58;101852.88;;;26.26;64.01
64916;BME280;51427;-27.442;153.014;2024-03-08T07:51:26;101862.03;;;26.26;64.44
64916;BME280;51427;-27.442;153.014;2024-03-08T07:53:54;101862.97;;;26.18;64.14
64916;BME280;51427;-27.442;153.014;2024-03-08T07:56:22;101866.19;;;26.20;64.71
64916;BME280;51427;-27.442;153.014;2024-03-08T07:58:49;101869.97;;;26.15;64.82
64916;BME280;51427;-27.442;153.014;2024-03-08T08:01:18;101863.81;;;26.10;64.70
64916;BME280;51427;-27.442;153.014;2024-03-08T08:03:48;101880.38;;;26.06;64.96
64916;BME280;51427;-27.442;153.014;2024-03-08T08:06:16;101885.13;;;26.06;64.58
64916;BME280;51427;-27.442;153.014;2024-03-08T08:08:45;101882.06;;;25.99;64.97
64916;BME280;51427;-27.442;153.014;2024-03-08T08:11:12;101881.59;;;25.97;65.06
64916;BME280;51427;-27.442;153.014;2024-03-08T08:13:42;101880.41;;;25.98;65.26
64916;BME280;51427;-27.442;153.014;2024-03-08T08:16:10;101881.63;;;25.88;64.84
64916;BME280;51427;-27.442;153.014;2024-03-08T08:18:39;101881.50;;;25.85;64.61
64916;BME280;51427;-27.442;153.014;2024-03-08T08:21:07;101894.28;;;25.86;64.11
64916;BME280;51427;-27.442;153.014;2024-03-08T08:23:35;101889.03;;;25.84;64.15
64916;BME280;51427;-27.442;153.014;2024-03-08T08:26:03;101887.75;;;25.82;64.52
64916;BME280;51427;-27.442;153.014;2024-03-08T08:28:31;101896.78;;;25.79;64.86
64916;BME280;51427;-27.442;153.014;2024-03-08T08:30:59;101896.41;;;25.80;65.00
64916;BME280;51427;-27.442;153.014;2024-03-08T08:33:26;101898.59;;;25.74;65.04
64916;BME280;51427;-27.442;153.014;2024-03-08T08:35:54;101897.63;;;25.70;65.36
64916;BME280;51427;-27.442;153.014;2024-03-08T08:38:22;101902.50;;;25.73;65.49
64916;BME280;51427;-27.442;153.014;2024-03-08T08:40:50;101910.84;;;25.73;65.91
64916;BME280;51427;-27.442;153.014;2024-03-08T08:43:17;101919.88;;;25.70;66.63
64916;BME280;51427;-27.442;153.014;2024-03-08T08:45:48;101909.28;;;25.64;65.81
64916;BME280;51427;-27.442;153.014;2024-03-08T08:48:17;101913.53;;;25.61;66.43
64916;BME280;51427;-27.442;153.014;2024-03-08T08:50:45;101921.25;;;25.56;66.68
64916;BME280;51427;-27.442;153.014;2024-03-08T08:53:13;101922.25;;;25.51;67.14
64916;BME280;51427;-27.442;153.014;2024-03-08T08:55:41;101925.72;;;25.40;68.12
64916;BME280;51427;-27.442;153.014;2024-03-08T08:58:09;101912.31;;;25.42;67.94
64916;BME280;51427;-27.442;153.014;2024-03-08T09:00:38;101913.28;;;25.37;68.83
64916;BME280;51427;-27.442;153.014;2024-03-08T09:03:06;101926.59;;;25.23;69.10
64916;BME280;51427;-27.442;153.014;2024-03-08T09:05:37;101926.44;;;25.19;69.39
64916;BME280;51427;-27.442;153.014;2024-03-08T09:08:05;101933.63;;;25.20;69.31
64916;BME280;51427;-27.442;153.014;2024-03-08T09:10:34;101933.31;;;25.22;69.14
64916;BME280;51427;-27.442;153.014;2024-03-08T09:13:02;101931.00;;;25.24;68.97
64916;BME280;51427;-27.442;153.014;2024-03-08T09:15:31;101939.06;;;25.08;70.02
64916;BME280;51427;-27.442;153.014;2024-03-08T09:17:58;101931.69;;;25.12;69.93
64916;BME280;51427;-27.442;153.014;2024-03-08T09:20:26;101934.34;;;25.00;70.59
64916;BME280;51427;-27.442;153.014;2024-03-08T09:22:54;101930.41;;;25.01;70.57
64916;BME280;51427;-27.442;153.014;2024-03-08T09:25:21;101939.72;;;25.05;70.27
64916;BME280;51427;-27.442;153.014;2024-03-08T09:27:49;101945.47;;;25.00;70.26
64916;BME280;51427;-27.442;153.014;2024-03-08T09:30:17;101945.94;;;25.02;70.10
64916;BME280;51427;-27.442;153.014;2024-03-08T09:32:44;101952.00;;;24.96;70.03
64916;BME280;51427;-27.442;153.014;2024-03-08T09:35:13;101953.16;;;24.95;69.99
64916;BME280;51427;-27.442;153.014;2024-03-08T09:37:40;101961.47;;;24.95;70.37
64916;BME280;51427;-27.442;153.014;2024-03-08T09:40:08;101958.06;;;24.89;70.59
64916;BME280;51427;-27.442;153.014;2024-03-08T09:42:36;101956.25;;;24.93;70.22
64916;BME280;51427;-27.442;153.014;2024-03-08T09:45:11;101968.84;;;24.91;70.23
64916;BME280;51427;-27.442;153.014;2024-03-08T09:47:43;101968.50;;;24.92;70.19
64916;BME280;51427;-27.442;153.014;2024-03-08T09:50:12;101967.38;;;24.93;70.08
64916;BME280;51427;-27.442;153.014;2024-03-08T09:52:49;101976.19;;;24.95;69.65
64916;BME280;51427;-27.442;153.014;2024-03-08T09:55:17;101980.09;;;24.94;69.37
64916;BME280;51427;-27.442;153.014;2024-03-08T09:57:48;101982.88;;;24.94;69.59
64916;BME280;51427;-27.442;153.014;2024-03-08T10:00:35;101984.88;;;24.85;70.16
64916;BME280;51427;-27.442;153.014;2024-03-08T10:03:03;101986.66;;;24.90;69.60
64916;BME280;51427;-27.442;153.014;2024-03-08T10:05:32;101989.09;;;24.83;69.21
64916;BME280;51427;-27.442;153.014;2024-03-08T10:08:00;101990.41;;;24.85;68.81
64916;BME280;51427;-27.442;153.014;2024-03-08T10:10:27;101993.69;;;24.87;68.52
64916;BME280;51427;-27.442;153.014;2024-03-08T10:12:56;101987.97;;;24.92;68.06
64916;BME280;51427;-27.442;153.014;2024-03-08T10:15:24;102001.03;;;24.92;68.12
64916;BME280;51427;-27.442;153.014;2024-03-08T10:17:56;101997.94;;;24.93;67.54
64916;BME280;51427;-27.442;153.014;2024-03-08T10:20:24;101992.84;;;24.95;67.00
64916;BME280;51427;-27.442;153.014;2024-03-08T10:22:53;101993.38;;;24.97;66.26
64916;BME280;51427;-27.442;153.014;2024-03-08T10:25:22;102000.06;;;24.88;66.58
64916;BME280;51427;-27.442;153.014;2024-03-08T10:27:51;102005.59;;;24.88;66.77
64916;BME280;51427;-27.442;153.014;2024-03-08T10:30:19;101999.88;;;24.84;67.06
64916;BME280;51427;-27.442;153.014;2024-03-08T10:32:48;102008.53;;;24.83;67.53
64916;BME280;51427;-27.442;153.014;2024-03-08T10:35:17;102001.66;;;24.80;67.50
64916;BME280;51427;-27.442;153.014;2024-03-08T10:37:49;102013.09;;;24.78;67.80
64916;BME280;51427;-27.442;153.014;2024-03-08T10:40:26;102016.72;;;24.79;67.63
64916;BME280;51427;-27.442;153.014;2024-03-08T10:42:59;102024.22;;;24.87;67.13
64916;BME280;51427;-27.442;153.014;2024-03-08T10:45:38;102018.34;;;24.89;67.49
64916;BME280;51427;-27.442;153.014;2024-03-08T10:51:01;102028.16;;;24.86;67.91
64916;BME280;51427;-27.442;153.014;2024-03-08T10:53:30;102023.44;;;24.87;67.89
64916;BME280;51427;-27.442;153.014;2024-03-08T10:55:58;102025.41;;;24.86;67.86
64916;BME280;51427;-27.442;153.014;2024-03-08T10:58:27;102021.59;;;24.82;67.94
64916;BME280;51427;-27.442;153.014;2024-03-08T11:00:56;102021.13;;;24.71;68.92
64916;BME280;51427;-27.442;153.014;2024-03-08T11:03:49;102023.88;;;24.63;69.00
64916;BME280;51427;-27.442;153.014;2024-03-08T11:06:22;102026.16;;;24.61;68.86
64916;BME280;51427;-27.442;153.014;2024-03-08T11:08:51;102031.22;;;24.67;68.70
64916;BME280;51427;-27.442;153.014;2024-03-08T11:11:32;102028.78;;;24.66;68.31
64916;BME280;51427;-27.442;153.014;2024-03-08T11:14:02;102030.09;;;24.60;68.59
64916;BME280;51427;-27.442;153.014;2024-03-08T11:19:23;102031.69;;;24.52;69.20
64916;BME280;51427;-27.442;153.014;2024-03-08T11:22:02;102042.50;;;24.54;68.83
64916;BME280;51427;-27.442;153.014;2024-03-08T11:24:39;102038.41;;;24.60;68.50
64916;BME280;51427;-27.442;153.014;2024-03-08T11:27:07;102045.59;;;24.61;68.60
64916;BME280;51427;-27.442;153.014;2024-03-08T11:29:37;102044.78;;;24.60;69.06
64916;BME280;51427;-27.442;153.014;2024-03-08T11:32:16;102052.47;;;24.55;69.39
64916;BME280;51427;-27.442;153.014;2024-03-08T11:34:49;102048.22;;;24.57;68.89
64916;BME280;51427;-27.442;153.014;2024-03-08T11:37:18;102050.47;;;24.55;69.24
64916;BME280;51427;-27.442;153.014;2024-03-08T11:39:48;102045.59;;;24.69;68.37
64916;BME280;51427;-27.442;153.014;2024-03-08T11:42:17;102052.13;;;24.73;70.37
64916;BME280;51427;-27.442;153.014;2024-03-08T11:44:46;102052.38;;;24.20;75.84
64916;BME280;51427;-27.442;153.014;2024-03-08T11:47:15;102047.34;;;24.22;75.55
64916;BME280;51427;-27.442;153.014;2024-03-08T11:49:43;102054.22;;;24.42;74.65
64916;BME280;51427;-27.442;153.014;2024-03-08T11:52:18;102055.88;;;24.43;74.58
64916;BME280;51427;-27.442;153.014;2024-03-08T11:54:53;102049.16;;;24.36;74.57
64916;BME280;51427;-27.442;153.014;2024-03-08T11:57:24;102041.81;;;24.48;74.21
64916;BME280;51427;-27.442;153.014;2024-03-08T11:59:54;102033.50;;;24.48;74.77
64916;BME280;51427;-27.442;153.014;2024-03-08T12:02:25;102033.50;;;24.40;75.06
64916;BME280;51427;-27.442;153.014;2024-03-08T12:04:58;102021.44;;;24.44;74.89
64916;BME280;51427;-27.442;153.014;2024-03-08T12:07:30;102019.72;;;24.17;77.02
64916;BME280;51427;-27.442;153.014;2024-03-08T12:10:19;102019.75;;;24.35;75.31
64916;BME280;51427;-27.442;153.014;2024-03-08T12:12:49;102020.91;;;24.34;75.23
64916;BME280;51427;-27.442;153.014;2024-03-08T12:15:22;102022.00;;;24.15;76.35
64916;BME280;51427;-27.442;153.014;2024-03-08T12:17:54;102020.91;;;24.42;74.93
64916;BME280;51427;-27.442;153.014;2024-03-08T12:20:26;102013.88;;;24.19;74.59
64916;BME280;51427;-27.442;153.014;2024-03-08T12:22:57;102011.25;;;24.31;74.85
64916;BME280;51427;-27.442;153.014;2024-03-08T12:25:32;102015.50;;;24.28;74.43
64916;BME280;51427;-27.442;153.014;2024-03-08T12:28:10;102007.25;;;24.06;75.80
64916;BME280;51427;-27.442;153.014;2024-03-08T12:30:52;102007.75;;;24.08;75.42
64916;BME280;51427;-27.442;153.014;2024-03-08T12:33:22;102000.13;;;24.14;75.80
64916;BME280;51427;-27.442;153.014;2024-03-08T12:35:52;102001.34;;;23.91;77.14